Elafonisos — D5HH7 — position and weather

sailwx.info

Track history (hours):
 
Tides and Currents Weather Stations Pressure Air Temp Water Temp Dewpoint Dewpoint Depression Visibility Wind Speed Wind Dir Waves Ship Positions

Elafonisos

Last reported at 2017-Nov-19 09:31 UTC. Time now 2017-Nov-21 10:17 UTC.
Position N 37°41' E 025°51'.

Length 209 m; draft 7.5 m.

Type: Cargo ship. MMSI: 636016689.

Date/timePositionNaut miles runAvg speedWind from/ knotsBaromVisibWave heightAir tempDewpointWater temp
2017-Nov-19 09:31N 37°41' E 025°51'013.1
2017-Nov-19 09:30N 37°41' E 025°51'712.7
2017-Nov-19 08:59N 37°35' E 025°52'613.0
2017-Nov-19 08:30N 37°29' E 025°54'30513.5
2017-Nov-18 09:50N 34°01' E 030°29'2412.8
2017-Nov-18 08:00N 33°46' E 030°52'712.8
2017-Nov-18 07:27N 33°42' E 030°58'6113.1
2017-Nov-18 02:47N 33°05' E 031°56'2212.7
2017-Nov-18 01:03N 32°53' E 032°19'112.8
2017-Nov-18 01:00N 32°53' E 032°19'613.0
2017-Nov-18 00:30N 32°50' E 032°26'612.9
2017-Nov-18 00:00N 32°47' E 032°33'713.1
2017-Nov-17 23:29N 32°43' E 032°40'613.2
2017-Nov-17 23:00N 32°40' E 032°46'713.4
2017-Nov-17 22:30N 32°37' E 032°53'713.2
2017-Nov-17 22:01N 32°34' E 033°00'713.0
2017-Nov-17 21:30N 32°30' E 033°07'713.2
2017-Nov-17 21:00N 32°27' E 033°13'713.3
2017-Nov-17 20:29N 32°23' E 033°20'613.5
2017-Nov-17 20:00N 32°20' E 033°27'713.6
2017-Nov-17 19:31N 32°16' E 033°34'713.6
2017-Nov-17 19:00N 32°13' E 033°41'713.6
2017-Nov-17 18:30N 32°10' E 033°48'713.7
2017-Nov-17 18:00N 32°06' E 033°55'713.6
2017-Nov-17 17:31N 32°03' E 034°02'713.2
2017-Nov-17 17:00N 32°00' E 034°09'612.0
2017-Nov-17 16:29N 31°57' E 034°16'611.8
2017-Nov-17 16:00N 31°55' E 034°22'611.9
2017-Nov-17 15:30N 31°53' E 034°28'611.8
2017-Nov-17 14:58N 31°52' E 034°35'3 2.9
2017-Nov-17 13:47N 31°50' E 034°39'0 0.0
2017-Nov-17 13:20N 31°50' E 034°39'0 0.0
2017-Nov-17 12:56N 31°50' E 034°39'0 0.0
2017-Nov-17 12:29N 31°50' E 034°39'0 0.0
2017-Nov-17 11:56N 31°50' E 034°39'0 0.0
2017-Nov-17 07:20N 31°50' E 034°39'0 0.0
2017-Nov-17 06:50N 31°50' E 034°39'0 0.0
2017-Nov-16 16:32N 31°50' E 034°39'0 0.0
2017-Nov-16 16:14N 31°50' E 034°39'0 0.0
2017-Nov-16 15:59N 31°50' E 034°39'0 0.0
2017-Nov-16 15:29N 31°50' E 034°39'0 0.0
2017-Nov-16 14:56N 31°50' E 034°39'0 0.0
2017-Nov-16 14:29N 31°50' E 034°39'0 0.0
2017-Nov-16 13:59N 31°50' E 034°39'0 0.0
2017-Nov-16 13:26N 31°50' E 034°39'0 0.0
2017-Nov-16 12:56N 31°50' E 034°39'0 0.0
2017-Nov-16 12:29N 31°50' E 034°39'0 0.0
2017-Nov-16 11:59N 31°50' E 034°39'0 0.0
2017-Nov-16 11:29N 31°49' E 034°39'0 0.0
2017-Nov-15 21:41N 31°50' E 034°38'3 1.4
2017-Nov-15 19:55N 31°51' E 034°36'0 0.3
2017-Nov-15 18:32N 31°50' E 034°36'0 0.1
2017-Nov-15 18:17N 31°50' E 034°36'0 0.0
2017-Nov-15 17:59N 31°50' E 034°36'0 0.0
2017-Nov-15 16:53N 31°50' E 034°36'  
Track history (hours):
 
Tides and Currents Weather Stations Pressure Air Temp Water Temp Dewpoint Dewpoint Depression Visibility Wind Speed Wind Dir Waves Ship Positions

Elafonisos

Last reported at 2017-Nov-19 09:31 UTC. Time now 2017-Nov-21 10:17 UTC.
Position N 37°41' E 025°51'.

Length 209 m; draft 7.5 m.

Type: Cargo ship. MMSI: 636016689.

Date/timePositionNaut miles runAvg speedWind from/ knotsBaromVisibWave heightAir tempDewpointWater temp
2017-Nov-19 09:31N 37°41' E 025°51'013.1
2017-Nov-19 09:30N 37°41' E 025°51'712.7
2017-Nov-19 08:59N 37°35' E 025°52'613.0
2017-Nov-19 08:30N 37°29' E 025°54'30513.5
2017-Nov-18 09:50N 34°01' E 030°29'2412.8
2017-Nov-18 08:00N 33°46' E 030°52'712.8
2017-Nov-18 07:27N 33°42' E 030°58'6113.1
2017-Nov-18 02:47N 33°05' E 031°56'2212.7
2017-Nov-18 01:03N 32°53' E 032°19'112.8
2017-Nov-18 01:00N 32°53' E 032°19'613.0
2017-Nov-18 00:30N 32°50' E 032°26'612.9
2017-Nov-18 00:00N 32°47' E 032°33'713.1
2017-Nov-17 23:29N 32°43' E 032°40'613.2
2017-Nov-17 23:00N 32°40' E 032°46'713.4
2017-Nov-17 22:30N 32°37' E 032°53'713.2
2017-Nov-17 22:01N 32°34' E 033°00'713.0
2017-Nov-17 21:30N 32°30' E 033°07'713.2
2017-Nov-17 21:00N 32°27' E 033°13'713.3
2017-Nov-17 20:29N 32°23' E 033°20'613.5
2017-Nov-17 20:00N 32°20' E 033°27'713.6
2017-Nov-17 19:31N 32°16' E 033°34'713.6
2017-Nov-17 19:00N 32°13' E 033°41'713.6
2017-Nov-17 18:30N 32°10' E 033°48'713.7
2017-Nov-17 18:00N 32°06' E 033°55'713.6
2017-Nov-17 17:31N 32°03' E 034°02'713.2
2017-Nov-17 17:00N 32°00' E 034°09'612.0
2017-Nov-17 16:29N 31°57' E 034°16'611.8
2017-Nov-17 16:00N 31°55' E 034°22'611.9
2017-Nov-17 15:30N 31°53' E 034°28'611.8
2017-Nov-17 14:58N 31°52' E 034°35'3 2.9
2017-Nov-17 13:47N 31°50' E 034°39'0 0.0
2017-Nov-17 13:20N 31°50' E 034°39'0 0.0
2017-Nov-17 12:56N 31°50' E 034°39'0 0.0
2017-Nov-17 12:29N 31°50' E 034°39'0 0.0
2017-Nov-17 11:56N 31°50' E 034°39'0 0.0
2017-Nov-17 07:20N 31°50' E 034°39'0 0.0
2017-Nov-17 06:50N 31°50' E 034°39'0 0.0
2017-Nov-16 16:32N 31°50' E 034°39'0 0.0
2017-Nov-16 16:14N 31°50' E 034°39'0 0.0
2017-Nov-16 15:59N 31°50' E 034°39'0 0.0
2017-Nov-16 15:29N 31°50' E 034°39'0 0.0
2017-Nov-16 14:56N 31°50' E 034°39'0 0.0
2017-Nov-16 14:29N 31°50' E 034°39'0 0.0
2017-Nov-16 13:59N 31°50' E 034°39'0 0.0
2017-Nov-16 13:26N 31°50' E 034°39'0 0.0
2017-Nov-16 12:56N 31°50' E 034°39'0 0.0
2017-Nov-16 12:29N 31°50' E 034°39'0 0.0
2017-Nov-16 11:59N 31°50' E 034°39'0 0.0
2017-Nov-16 11:29N 31°49' E 034°39'0 0.0
2017-Nov-15 21:41N 31°50' E 034°38'3 1.4
2017-Nov-15 19:55N 31°51' E 034°36'0 0.3
2017-Nov-15 18:32N 31°50' E 034°36'0 0.1
2017-Nov-15 18:17N 31°50' E 034°36'0 0.0
2017-Nov-15 17:59N 31°50' E 034°36'0 0.0
2017-Nov-15 16:53N 31°50' E 034°36'  

Dump ship's entire track history